Granite Falls, WA (98252)

6:12 AM PST on February 07, 2016 (GMT -0800)
CopperMoon, Woods Lake Road | | Change Station
CLOSE
Current Station
Personal Weather Station
Location: Monroe, WA
Elevation: 712 ft
Nearby Weather Stations

Elev 712 ft 47.93 °N, 121.85 °W | Updated 1 minute ago

Clear
Clear
30.7 °F
Feels Like 31 °F
N
0.5
Wind Variable Wind from SE
Gusts 1.7 mph

Today
High -- | Low -- °F
--% Chance of Precip.
Yesterday
High -- | Low -- °F
Precip. -- in
Pressure 30.54 in
Visibility 1.5 miles
Clouds Clear
Windchill 31 °F
Dew Point 30 °F
Humidity 99%
Rainfall 0.00 in
Snow Depth Not available.
7:26 AM 5:15 PM
Waning Crescent, 1% visible
METAR KAWO 071355Z AUTO 00000KT 1 1/2SM CLR M01/M04 A3054 RMK AO1
Pressure 30.54 in
Visibility 1.5 miles
Clouds Clear
Windchill 31 °F
Dew Point 30 °F
Humidity 99%
Rainfall 0.00 in
Snow Depth Not available.
7:26 AM 5:15 PM
Waning Crescent, 1% visible
METAR KAWO 071355Z AUTO 00000KT 1 1/2SM CLR M01/M04 A3054 RMK AO1

10-Day Weather Forecast

Almanac

Astronomy

Feb. 07, 2016 Rise Set
Actual Time
Civil Twilight
Nautical Twilight
Astronomical Twilight
Moon
Length of Visible Light
Length of Day
Tomorrow will be .
, % of the Moon is Illuminated

Today's Extremes

State Highs State Lows

Community

WunderPhotos

Upload Photos

1,891,204 photos uploaded!

WunderBlog® & News

Nearby

Air Quality

  Air Quality AQ Index Pollutant
Not available.

Snow Depth

Station Depth Elevation

Earthquake Activity

City Distance Mag. Time & Date
Minimum magnitude displayed is 2.5.

Coastal Water Temperatures

Place Temperature

Stations

Nearby Weather Stations

Station Location Temp. Windchill Dew Point Humidity Wind Precip. Elev Updated Type
                   

Watches & Warnings

There are currently no watches in effect.